Time;durP1;ratioP1;P1;durP2;ratioP2;P2;SDS_P1;SDS_P2;PMS_P1;PMS_P2;Temp;Humidity;BMP_temperature;BMP_pressure;BME280_temperature;BME280_humidity;BME280_pressure;Samples;Min_cycle;Max_cycle;Signal;HPM_P1;HPM_P2
2022/08/06 00:02:24;;;;;;;10.77;5.78;;;;;;;17.27;85.32;94816.53;5070158;28;20044;-66
2022/08/06 00:04:58;;;;;;;6.18;5.55;;;;;;;17.31;85.99;94845.72;5070185;28;20119;-66
2022/08/06 00:07:26;;;;;;;8.95;6.60;;;;;;;17.27;86.47;94849.94;5074693;28;20050;-67
2022/08/06 00:09:58;;;;;;;7.88;6.10;;;;;;;17.26;86.44;94846.53;5070140;28;20060;-67
2022/08/06 00:12:30;;;;;;;7.60;5.97;;;;;;;17.22;86.69;94842.88;5068049;28;20432;-66
2022/08/06 00:15:00;;;;;;;8.32;5.95;;;;;;;17.13;86.89;94840.03;5069185;28;20059;-67
2022/08/06 00:17:38;;;;;;;8.88;5.70;;;;;;;17.09;86.42;94846.13;5075223;28;20048;-67
2022/08/06 00:20:06;;;;;;;13.60;5.90;;;;;;;17.05;87.50;94842.44;5071851;28;20045;-67
2022/08/06 00:22:36;;;;;;;11.95;5.90;;;;;;;17.00;87.33;94848.53;5072865;28;20125;-66
2022/08/06 00:25:04;;;;;;;10.52;5.95;;;;;;;16.96;87.95;94845.66;5067217;28;20493;-66
2022/08/06 00:27:31;;;;;;;8.48;6.25;;;;;;;16.88;88.12;94843.56;5074766;28;20036;-66
2022/08/06 00:30:06;;;;;;;7.07;5.88;;;;;;;16.82;88.56;94849.88;5073808;28;20568;-66
2022/08/06 00:32:43;;;;;;;10.23;5.97;;;;;;;16.82;88.48;94850.66;5073337;28;20078;-67
2022/08/06 00:35:11;;;;;;;8.75;6.13;;;;;;;16.81;88.85;94850.94;5077487;28;20048;-65
2022/08/06 00:37:41;;;;;;;12.60;7.05;;;;;;;16.86;88.24;94850.94;5071176;28;20068;-66
2022/08/06 00:40:29;;;;;;;7.90;6.10;;;;;;;16.82;88.91;94849.88;5071765;28;20040;-66
2022/08/06 00:43:02;;;;;;;13.00;6.00;;;;;;;16.88;89.19;94853.31;5067969;28;20043;-66
2022/08/06 00:45:35;;;;;;;7.97;5.93;;;;;;;16.86;89.54;94850.94;5069641;28;20043;-66
2022/08/06 00:48:07;;;;;;;12.40;6.53;;;;;;;16.85;90.05;94852.00;5065257;28;20828;-66
2022/08/06 00:50:54;;;;;;;7.55;6.25;;;;;;;16.86;90.24;94850.94;5069341;28;20040;-67
2022/08/06 00:53:21;;;;;;;7.45;5.90;;;;;;;16.91;89.63;94843.03;5070535;28;20032;-67
2022/08/06 00:55:48;;;;;;;9.43;6.10;;;;;;;16.90;89.95;94846.72;5069864;28;20817;-67
2022/08/06 00:58:26;;;;;;;11.15;6.50;;;;;;;16.95;90.08;94851.94;5068574;28;20044;-67
2022/08/06 01:00:53;;;;;;;6.70;5.75;;;;;;;16.99;89.99;94852.97;5074480;28;20036;-67
2022/08/06 01:03:20;;;;;;;8.73;6.28;;;;;;;17.03;89.83;94861.13;5066689;28;20557;-66
2022/08/06 01:06:09;;;;;;;7.30;5.75;;;;;;;17.04;89.81;94851.41;5067005;28;20039;-67
2022/08/06 01:08:57;;;;;;;6.60;5.72;;;;;;;17.06;89.18;94854.53;5065740;28;20032;-66
2022/08/06 01:11:24;;;;;;;7.97;5.88;;;;;;;17.03;88.98;94855.06;5069481;28;20054;-66
2022/08/06 01:13:50;;;;;;;8.25;5.95;;;;;;;17.00;89.45;94854.56;5060207;28;20059;-66
2022/08/06 01:16:33;;;;;;;7.32;5.57;;;;;;;16.92;90.00;94855.13;5067350;28;20616;-66
2022/08/06 01:19:26;;;;;;;7.47;5.93;;;;;;;16.91;90.20;94853.56;5066941;28;20709;-66
2022/08/06 01:22:19;;;;;;;11.38;6.38;;;;;;;16.87;90.07;94857.78;5062040;28;20113;-66
2022/08/06 01:25:32;;;;;;;6.57;5.88;;;;;;;16.90;90.56;94851.97;5062610;28;20058;-67
2022/08/06 01:28:13;;;;;;;7.20;6.20;;;;;;;16.84;90.47;94853.06;5067995;28;20029;-66
2022/08/06 01:30:48;;;;;;;8.40;5.68;;;;;;;16.76;91.26;94850.94;5066930;28;20465;-66
2022/08/06 01:33:30;;;;;;;6.82;5.55;;;;;;;16.73;91.52;94846.25;5069268;28;20047;-66
2022/08/06 01:36:09;;;;;;;7.32;6.45;;;;;;;16.76;92.70;94840.44;5067464;28;20051;-66
2022/08/06 01:38:42;;;;;;;8.60;6.93;;;;;;;16.79;92.23;94837.28;5069468;28;20048;-66
2022/08/06 01:41:39;;;;;;;9.70;6.38;;;;;;;16.74;92.19;94832.03;5068197;28;20129;-67
2022/08/06 01:44:38;;;;;;;9.82;6.95;;;;;;;16.50;92.43;94803.72;5067206;28;20105;-67
2022/08/06 01:47:14;;;;;;;11.38;6.35;;;;;;;16.53;93.75;94826.84;5067694;28;20093;-67
2022/08/06 01:49:52;;;;;;;9.50;6.85;;;;;;;16.46;94.02;94831.59;5063534;28;20050;-67
2022/08/06 01:52:51;;;;;;;12.95;7.13;;;;;;;16.43;94.11;94837.38;5066479;28;20043;-67
2022/08/06 01:55:29;;;;;;;9.20;7.10;;;;;;;16.35;94.39;94835.28;5067286;28;20080;-67
2022/08/06 01:58:20;;;;;;;10.70;6.53;;;;;;;16.23;95.39;94838.22;5065848;28;20152;-66
2022/08/06 02:00:58;;;;;;;9.13;7.22;;;;;;;16.18;95.84;94836.38;5066018;28;20041;-67
2022/08/06 02:03:46;;;;;;;9.85;7.50;;;;;;;16.05;96.67;94834.31;5070309;28;20052;-67
2022/08/06 02:06:30;;;;;;;12.32;7.35;;;;;;;16.03;97.33;94828.53;5065101;28;20048;-67
2022/08/06 02:09:00;;;;;;;8.98;6.90;;;;;;;15.96;97.89;94823.53;5099162;27;20056;-67
2022/08/06 02:11:55;;;;;;;8.88;7.05;;;;;;;15.90;98.32;94818.56;5065283;28;20133;-66
2022/08/06 02:14:33;;;;;;;8.63;7.68;;;;;;;15.80;99.68;94820.13;5069803;28;20046;-67
2022/08/06 02:17:03;;;;;;;12.10;7.57;;;;;;;15.73;99.61;94803.84;5066696;28;20056;-67
2022/08/06 02:19:46;;;;;;;9.35;7.38;;;;;;;15.77;100.00;94815.44;5065609;28;20045;-67
2022/08/06 02:22:31;;;;;;;13.32;7.90;;;;;;;15.78;100.00;94810.97;5065070;28;20884;-67
2022/08/06 02:25:03;;;;;;;11.85;7.57;;;;;;;15.74;100.00;94810.69;5064892;28;20101;-67
2022/08/06 02:27:55;;;;;;;10.93;8.10;;;;;;;15.70;100.00;94804.38;5063057;28;20067;-67
2022/08/06 02:30:31;;;;;;;10.48;9.02;;;;;;;15.77;100.00;94806.75;5066470;28;20055;-66
2022/08/06 02:33:04;;;;;;;17.85;9.23;;;;;;;15.74;100.00;94808.06;5064841;28;20060;-67
2022/08/06 02:35:45;;;;;;;14.43;8.75;;;;;;;15.71;100.00;94805.94;5063617;28;20559;-67
2022/08/06 02:38:35;;;;;;;15.02;7.95;;;;;;;15.88;100.00;94815.41;5066060;28;20040;-66
2022/08/06 02:41:21;;;;;;;11.27;8.15;;;;;;;15.92;100.00;94813.81;5065882;28;20542;-66
2022/08/06 02:44:05;;;;;;;11.95;8.32;;;;;;;15.84;100.00;94821.19;5065128;28;20050;-66
2022/08/06 02:47:04;;;;;;;12.38;7.70;;;;;;;15.88;100.00;94825.91;5065174;28;20125;-66
2022/08/06 02:49:47;;;;;;;9.93;7.45;;;;;;;15.94;100.00;94822.25;5052817;28;20051;-66
2022/08/06 02:52:35;;;;;;;10.85;8.43;;;;;;;15.94;100.00;94836.16;5064754;28;20135;-66
2022/08/06 02:55:16;;;;;;;11.05;8.20;;;;;;;15.92;100.00;94824.31;5066379;28;20048;-66
2022/08/06 02:57:51;;;;;;;10.57;7.85;;;;;;;15.90;100.00;94826.44;5064982;28;20042;-67
2022/08/06 03:00:19;;;;;;;12.23;7.65;;;;;;;15.83;100.00;94814.38;5064459;28;20048;-67
2022/08/06 03:03:00;;;;;;;11.20;7.85;;;;;;;15.81;100.00;94826.97;5068801;28;20718;-65
2022/08/06 03:05:28;;;;;;;9.35;7.53;;;;;;;15.75;100.00;94832.50;5066815;28;20325;-65
2022/08/06 03:08:18;;;;;;;13.55;7.72;;;;;;;15.70;100.00;94829.81;5069847;28;20129;-67
2022/08/06 03:10:50;;;;;;;10.20;7.65;;;;;;;15.70;100.00;94829.81;5065839;28;20131;-67
2022/08/06 03:13:18;;;;;;;9.55;7.32;;;;;;;15.69;100.00;94829.03;5066354;28;20239;-65
2022/08/06 03:15:46;;;;;;;12.80;6.93;;;;;;;15.62;100.00;94833.78;5066859;28;21005;-65
2022/08/06 03:18:27;;;;;;;10.38;6.65;;;;;;;15.59;100.00;94834.28;5068015;28;20510;-67
2022/08/06 03:20:56;;;;;;;9.25;7.22;;;;;;;15.57;100.00;94828.50;5061776;28;20037;-65
2022/08/06 03:23:24;;;;;;;9.75;7.70;;;;;;;15.58;100.00;94827.47;5067740;28;20078;-68
2022/08/06 03:25:54;;;;;;;9.23;6.85;;;;;;;15.65;100.00;94838.50;5064198;28;20131;-67
2022/08/06 03:28:22;;;;;;;10.80;6.88;;;;;;;15.67;100.00;94836.41;5054841;28;20138;-68
2022/08/06 03:30:50;;;;;;;8.82;6.78;;;;;;;15.69;100.00;94839.56;5091300;28;20041;-66
2022/08/06 03:33:23;;;;;;;9.05;7.20;;;;;;;15.71;100.00;94829.56;5064352;28;20055;-69
2022/08/06 03:36:09;;;;;;;14.52;7.43;;;;;;;15.77;100.00;94841.69;5064885;28;20067;-66
2022/08/06 03:38:40;;;;;;;10.50;7.47;;;;;;;15.77;100.00;94836.44;5059544;28;20135;-65
2022/08/06 03:41:09;;;;;;;8.57;7.10;;;;;;;15.78;100.00;94822.25;5056250;28;20848;-67
2022/08/06 03:43:36;;;;;;;11.70;7.35;;;;;;;15.87;100.00;94830.38;5061824;28;20113;-66
2022/08/06 03:46:45;;;;;;;12.02;6.88;;;;;;;15.95;100.00;94834.31;5056765;28;20040;-69
2022/08/06 03:49:27;;;;;;;10.55;7.15;;;;;;;15.96;100.00;94830.66;5049729;28;20048;-67
2022/08/06 03:52:10;;;;;;;8.30;6.82;;;;;;;16.06;100.00;94838.50;5061416;28;20191;-68
2022/08/06 03:54:46;;;;;;;9.77;6.97;;;;;;;16.14;100.00;94840.59;5065037;28;20048;-68
2022/08/06 03:57:20;;;;;;;15.43;7.07;;;;;;;16.21;100.00;94835.84;5064464;28;20046;-67
2022/08/06 04:00:00;;;;;;;11.10;7.45;;;;;;;16.29;100.00;94837.16;5064348;28;20495;-67
2022/08/06 04:02:40;;;;;;;18.02;7.07;;;;;;;16.34;100.00;94844.25;5071404;28;20076;-67
2022/08/06 04:05:25;;;;;;;15.65;7.57;;;;;;;16.38;99.79;94840.03;5066347;28;20040;-68
2022/08/06 04:08:06;;;;;;;10.27;6.90;;;;;;;16.40;99.85;94843.16;5062786;28;20048;-66
2022/08/06 04:10:44;;;;;;;10.57;7.18;;;;;;;16.46;98.94;94847.38;5067212;28;20047;-67
2022/08/06 04:13:26;;;;;;;10.38;7.70;;;;;;;16.49;98.54;94846.81;5061040;28;20730;-67
2022/08/06 04:16:14;;;;;;;16.75;8.30;;;;;;;16.52;98.56;94850.78;5067338;28;20037;-67
2022/08/06 04:19:02;;;;;;;10.45;8.52;;;;;;;16.59;98.22;94857.31;5065670;28;20028;-69
2022/08/06 04:21:29;;;;;;;10.98;7.18;;;;;;;16.67;97.82;94847.31;5066580;28;20716;-67
2022/08/06 04:24:16;;;;;;;10.27;7.78;;;;;;;16.72;97.92;94855.19;5069142;28;20051;-67
2022/08/06 04:26:47;;;;;;;15.13;8.90;;;;;;;16.80;97.12;94862.53;5061500;28;20048;-68
2022/08/06 04:29:18;;;;;;;11.52;8.30;;;;;;;16.87;96.96;94854.34;5066516;28;20047;-67
2022/08/06 04:31:47;;;;;;;10.30;8.20;;;;;;;16.97;96.64;94862.22;5068544;28;20158;-68
2022/08/06 04:34:38;;;;;;;11.52;8.32;;;;;;;17.09;95.92;94869.81;5071878;28;20693;-67
2022/08/06 04:37:25;;;;;;;14.25;8.82;;;;;;;17.16;95.68;94868.44;5061409;28;20036;-68
2022/08/06 04:39:57;;;;;;;10.73;7.85;;;;;;;17.24;94.49;94872.34;5069545;28;20048;-68
2022/08/06 04:42:25;;;;;;;13.80;8.73;;;;;;;17.41;93.74;94881.72;5067440;28;20051;-68
2022/08/06 04:44:53;;;;;;;16.90;8.25;;;;;;;17.53;93.82;94879.53;5068884;28;20707;-68
2022/08/06 04:47:30;;;;;;;11.20;7.70;;;;;;;17.66;93.40;94878.13;5049786;28;20075;-67
2022/08/06 04:50:10;;;;;;;12.57;8.30;;;;;;;17.74;93.24;94875.72;5045174;28;20043;-68
2022/08/06 04:52:37;;;;;;;10.68;8.18;;;;;;;17.83;92.92;94877.78;5067211;28;20044;-68
2022/08/06 04:55:14;;;;;;;10.95;8.30;;;;;;;17.95;92.60;94891.38;5063969;28;20052;-68
2022/08/06 04:57:59;;;;;;;12.55;7.93;;;;;;;18.05;92.04;94886.03;5055591;28;20044;-68
2022/08/06 05:00:44;;;;;;;12.48;8.27;;;;;;;18.18;91.35;94889.09;5061795;28;20560;-68
2022/08/06 05:03:27;;;;;;;10.35;8.07;;;;;;;18.34;90.78;94887.91;5068255;28;20054;-68
2022/08/06 05:06:17;;;;;;;11.52;8.32;;;;;;;18.47;89.97;94887.25;5070510;28;20051;-68
2022/08/06 05:08:50;;;;;;;10.05;7.78;;;;;;;18.61;89.34;94881.31;5065277;28;20134;-68
2022/08/06 05:11:26;;;;;;;12.27;7.85;;;;;;;18.66;88.53;94886.53;5068572;28;20688;-67
2022/08/06 05:14:01;;;;;;;12.70;9.10;;;;;;;18.79;88.08;94887.72;5062382;28;20076;-68
2022/08/06 05:16:38;;;;;;;10.00;7.30;;;;;;;18.94;87.64;94884.16;5065343;28;20761;-67
2022/08/06 05:19:28;;;;;;;10.75;8.27;;;;;;;19.08;86.32;94887.66;5066031;28;20048;-67
2022/08/06 05:21:58;;;;;;;11.60;7.43;;;;;;;19.19;84.43;94881.19;5067398;28;20036;-67
2022/08/06 05:24:40;;;;;;;8.68;7.13;;;;;;;19.26;83.61;94886.91;5067782;28;20675;-67
2022/08/06 05:27:27;;;;;;;13.32;7.78;;;;;;;19.34;83.41;94887.34;5064933;28;20124;-68
2022/08/06 05:30:14;;;;;;;9.05;7.85;;;;;;;19.48;84.44;94888.19;5068085;28;20060;-67
2022/08/06 05:32:49;;;;;;;10.35;7.70;;;;;;;19.57;84.01;94896.28;5070352;28;20200;-68
2022/08/06 05:35:22;;;;;;;12.65;8.27;;;;;;;19.66;85.14;94884.78;5067143;28;20446;-67
2022/08/06 05:38:08;;;;;;;11.85;8.25;;;;;;;19.89;85.07;94892.94;5069070;28;20044;-67
2022/08/06 05:40:37;;;;;;;9.07;7.63;;;;;;;19.91;83.17;94901.34;5066534;28;20045;-67
2022/08/06 05:43:23;;;;;;;9.30;8.18;;;;;;;19.94;83.74;94894.72;5071545;28;20792;-67
2022/08/06 05:45:56;;;;;;;10.13;7.35;;;;;;;20.00;83.25;94893.56;5066064;28;20045;-68
2022/08/06 05:48:24;;;;;;;9.45;7.03;;;;;;;20.12;79.65;94895.75;5069899;28;20045;-67
2022/08/06 05:50:59;;;;;;;11.50;7.97;;;;;;;20.21;79.15;94894.03;5066603;28;20052;-67
2022/08/06 05:53:40;;;;;;;8.82;7.35;;;;;;;20.35;77.60;94896.69;5071353;28;20043;-67
2022/08/06 05:56:42;;;;;;;11.23;7.75;;;;;;;20.42;77.47;94900.53;5067650;28;20045;-67
2022/08/06 05:59:19;;;;;;;16.02;8.52;;;;;;;20.59;77.18;94899.19;5066251;28;20052;-68
2022/08/06 06:02:09;;;;;;;12.70;7.40;;;;;;;20.68;75.90;94892.16;5067574;28;20078;-67
2022/08/06 06:04:36;;;;;;;9.82;7.47;;;;;;;20.75;75.28;94892.56;5068163;28;20099;-67
2022/08/06 06:07:13;;;;;;;10.20;7.63;;;;;;;20.79;75.19;94888.25;5067773;28;20044;-67
2022/08/06 06:10:01;;;;;;;14.68;8.10;;;;;;;20.93;75.67;94892.75;5069119;28;20040;-67
2022/08/06 06:12:32;;;;;;;12.27;7.47;;;;;;;21.08;76.83;94892.44;5066722;28;20451;-67
2022/08/06 06:15:01;;;;;;;16.25;7.20;;;;;;;21.25;75.83;94888.41;5064953;28;20040;-66
2022/08/06 06:18:17;;;;;;;19.40;7.95;;;;;;;21.35;75.40;94878.38;5064193;28;20049;-65
2022/08/06 06:21:28;;;;;;;27.20;7.28;;;;;;;21.54;76.23;94880.94;5067536;28;20040;-65
2022/08/06 06:24:26;;;;;;;20.25;8.60;;;;;;;21.70;74.02;94883.25;5065224;28;20048;-66
2022/08/06 06:27:05;;;;;;;13.20;7.75;;;;;;;21.85;73.31;94880.22;5071683;28;20044;-64
2022/08/06 06:30:05;;;;;;;36.70;8.88;;;;;;;21.96;71.97;94881.56;5071957;28;20043;-66
2022/08/06 06:33:07;;;;;;;12.02;7.80;;;;;;;22.07;71.20;94881.31;5070554;28;20056;-65
2022/08/06 06:35:56;;;;;;;15.63;6.97;;;;;;;22.13;69.94;94880.13;5074033;28;20048;-65
2022/08/06 06:38:50;;;;;;;13.25;8.10;;;;;;;22.23;69.61;94879.84;5074639;28;20046;-63
2022/08/06 06:41:57;;;;;;;16.20;6.80;;;;;;;22.49;68.31;94873.91;5063319;28;20546;-66
2022/08/06 06:44:30;;;;;;;8.48;6.70;;;;;;;22.66;66.51;94871.34;5068757;28;20248;-67
2022/08/06 06:47:29;;;;;;;8.50;6.22;;;;;;;22.85;65.46;94870.31;5064073;28;20039;-66
2022/08/06 06:50:11;;;;;;;8.18;7.18;;;;;;;23.10;64.16;94868.84;5064737;28;20040;-66
2022/08/06 06:52:46;;;;;;;10.48;7.35;;;;;;;23.22;65.02;94868.25;5072050;28;20101;-66
2022/08/06 06:55:21;;;;;;;15.88;7.47;;;;;;;23.26;64.80;94866.53;5068373;28;20041;-66
2022/08/06 06:58:14;;;;;;;9.23;6.78;;;;;;;23.25;64.96;94859.69;5072550;28;20040;-66
2022/08/06 07:00:52;;;;;;;14.95;7.00;;;;;;;23.50;65.01;94862.66;5064899;28;20044;-66
2022/08/06 07:03:42;;;;;;;10.40;7.15;;;;;;;23.67;64.21;94860.00;5065150;28;20040;-66
2022/08/06 07:06:11;;;;;;;9.32;6.00;;;;;;;23.66;63.36;94853.16;5066273;28;20737;-65
2022/08/06 07:08:59;;;;;;;11.18;7.75;;;;;;;23.76;62.29;94858.13;5067075;28;20101;-66
2022/08/06 07:11:44;;;;;;;9.77;6.40;;;;;;;24.04;62.27;94858.59;5067199;28;20043;-66
2022/08/06 07:14:31;;;;;;;13.05;7.53;;;;;;;24.16;62.20;94857.94;5061168;28;20048;-66
2022/08/06 07:17:01;;;;;;;19.63;7.07;;;;;;;24.41;61.80;94850.22;5060470;28;20044;-66
2022/08/06 07:19:50;;;;;;;9.82;6.32;;;;;;;24.67;60.55;94852.03;5065949;28;20522;-65
2022/08/06 07:22:22;;;;;;;6.65;5.95;;;;;;;24.76;59.68;94852.78;5062149;28;20063;-65
2022/08/06 07:24:58;;;;;;;13.43;6.07;;;;;;;24.97;57.04;94850.97;5068240;28;20641;-66
2022/08/06 07:27:35;;;;;;;12.50;5.53;;;;;;;25.03;57.59;94842.75;5063106;28;20108;-66
2022/08/06 07:30:14;;;;;;;;;;;;;;;25.18;57.39;94842.22;5071733;28;20028;-66
2022/08/06 07:32:44;;;;;;;8.43;6.93;;;;;;;25.31;56.05;94843.88;5061679;28;19924;-67
2022/08/06 07:35:19;;;;;;;9.50;6.15;;;;;;;25.34;55.63;94843.22;5064201;28;20048;-66
2022/08/06 07:37:54;;;;;;;7.88;6.55;;;;;;;25.52;54.23;94832.44;5062705;28;20044;-66
2022/08/06 07:40:41;;;;;;;12.50;6.00;;;;;;;25.63;55.61;94844.25;5066494;28;20655;-67
2022/08/06 07:43:25;;;;;;;7.50;6.05;;;;;;;25.72;54.10;94842.31;5068347;28;20454;-66
2022/08/06 07:46:05;;;;;;;7.95;6.18;;;;;;;25.74;53.81;94844.66;5065096;28;20544;-65
2022/08/06 07:48:38;;;;;;;7.13;5.47;;;;;;;25.93;54.44;94836.19;5062314;27;20313;-65
2022/08/06 07:51:13;;;;;;;6.70;5.75;;;;;;;26.04;54.23;94842.69;5072262;28;20040;-66
2022/08/06 07:53:42;;;;;;;14.75;7.45;;;;;;;26.23;53.00;94838.72;5066740;28;20446;-66
2022/08/06 07:56:26;;;;;;;7.95;6.22;;;;;;;26.44;51.94;94834.09;5068342;28;20056;-66
2022/08/06 07:58:56;;;;;;;7.75;5.78;;;;;;;26.47;51.01;94844.13;5069753;28;20040;-66
2022/08/06 08:01:25;;;;;;;5.85;5.30;;;;;;;26.66;51.55;94840.16;5073143;28;20514;-66
2022/08/06 08:07:10;;;;;;;6.18;5.32;;;;;;;26.70;49.36;94835.69;5072328;28;20046;-66
2022/08/06 08:09:40;;;;;;;6.40;5.32;;;;;;;26.79;49.33;94844.38;5069554;27;20068;-65
2022/08/06 08:12:28;;;;;;;8.10;5.47;;;;;;;26.97;48.10;94838.81;5068935;28;20044;-66
2022/08/06 08:15:04;;;;;;;6.35;5.03;;;;;;;27.05;48.58;94835.25;5063277;27;20232;-67
2022/08/06 08:17:44;;;;;;;8.55;5.70;;;;;;;27.37;49.14;94835.44;5069829;28;20845;-66
2022/08/06 08:20:13;;;;;;;10.68;5.68;;;;;;;27.48;48.63;94839.22;5065749;27;20051;-66
2022/08/06 08:22:47;;;;;;;12.98;5.85;;;;;;;27.69;47.93;94846.28;5062793;28;20046;-66
2022/08/06 08:25:17;;;;;;;13.63;5.40;;;;;;;27.86;46.15;94835.28;5064551;28;20056;-67
2022/08/06 08:28:06;;;;;;;12.68;5.50;;;;;;;27.81;46.25;94838.19;5070057;28;20044;-66
2022/08/06 08:30:39;;;;;;;7.68;5.47;;;;;;;27.70;46.75;94839.81;5065105;27;20040;-67
2022/08/06 08:33:06;;;;;;;19.70;14.98;;;;;;;27.89;46.51;94831.13;5070739;28;20036;-67
2022/08/06 08:35:37;;;;;;;6.32;4.97;;;;;;;28.16;45.70;94837.63;5069921;28;20044;-66
2022/08/06 08:38:04;;;;;;;9.52;5.10;;;;;;;28.35;46.25;94835.06;5069830;28;20048;-67
2022/08/06 08:40:36;;;;;;;15.02;5.50;;;;;;;28.40;44.25;94832.13;5071116;28;20607;-66
2022/08/06 08:43:10;;;;;;;8.38;5.03;;;;;;;28.79;43.40;94832.31;5071314;28;20048;-66
2022/08/06 08:45:50;;;;;;;5.25;4.47;;;;;;;28.98;43.80;94844.22;5066124;28;20048;-67
2022/08/06 08:48:24;;;;;;;8.95;5.28;;;;;;;29.22;44.67;94831.75;5066544;28;20052;-67
2022/08/06 08:50:59;;;;;;;5.97;4.93;;;;;;;29.36;42.56;94829.38;5068423;28;20629;-67
2022/08/06 08:53:36;;;;;;;8.80;5.13;;;;;;;29.58;42.75;94827.13;5067626;28;20048;-67
2022/08/06 08:56:12;;;;;;;7.55;4.20;;;;;;;29.79;41.56;94827.59;5068413;28;20040;-67
2022/08/06 08:59:01;;;;;;;13.27;6.97;;;;;;;29.97;40.86;94827.94;5065666;28;20519;-66
2022/08/06 09:01:49;;;;;;;6.00;4.35;;;;;;;30.18;39.26;94827.56;5063880;28;20194;-67
2022/08/06 09:04:19;;;;;;;9.23;5.30;;;;;;;30.34;38.56;94829.38;5064295;28;20040;-66
2022/08/06 09:06:50;;;;;;;9.30;4.55;;;;;;;30.58;37.19;94829.00;5064844;28;20726;-67
2022/08/06 09:09:18;;;;;;;7.45;5.60;;;;;;;30.75;37.17;94821.59;5070668;28;20153;-69
2022/08/06 09:11:57;;;;;;;5.30;4.63;;;;;;;30.84;36.84;94830.94;5067807;28;20047;-67
2022/08/06 09:14:37;;;;;;;5.95;4.13;;;;;;;29.88;37.79;94825.47;5064039;28;20142;-67
2022/08/06 09:17:07;;;;;;;5.22;4.28;;;;;;;29.90;38.33;94823.19;5068654;28;20109;-66
2022/08/06 09:19:38;;;;;;;4.20;3.67;;;;;;;29.71;38.41;94825.84;5065581;28;20094;-66
2022/08/06 09:22:08;;;;;;;6.63;4.50;;;;;;;29.77;38.74;94823.72;5071275;28;20052;-66
2022/08/06 09:24:36;;;;;;;10.70;3.95;;;;;;;29.98;37.79;94820.63;5067209;28;20044;-66
2022/08/06 09:27:11;;;;;;;9.60;4.40;;;;;;;30.26;37.54;94817.69;5070713;28;20048;-67
2022/08/06 09:30:00;;;;;;;9.70;4.25;;;;;;;30.69;36.68;94821.13;5063524;28;20040;-67
2022/08/06 09:32:47;;;;;;;4.97;3.58;;;;;;;31.17;35.55;94815.31;5071791;28;20067;-67
2022/08/06 09:35:26;;;;;;;9.85;4.57;;;;;;;31.76;34.84;94813.00;5065815;28;20040;-67
2022/08/06 09:38:13;;;;;;;7.22;4.40;;;;;;;32.26;32.94;94807.38;5068492;28;20109;-67
2022/08/06 09:41:11;;;;;;;9.90;4.93;;;;;;;32.55;33.97;94809.16;5065029;28;20048;-67
2022/08/06 09:43:42;;;;;;;4.57;3.58;;;;;;;33.01;32.18;94807.22;5072498;28;20048;-68
2022/08/06 09:46:46;;;;;;;7.20;3.75;;;;;;;33.54;31.01;94801.34;5063747;28;20052;-68
2022/08/06 09:49:17;;;;;;;5.65;4.07;;;;;;;33.67;30.61;94805.31;5069915;28;20056;-67
2022/08/06 09:52:17;;;;;;;6.10;3.50;;;;;;;34.04;28.12;94801.53;5066481;28;20032;-67
2022/08/06 09:54:48;;;;;;;5.10;3.90;;;;;;;34.34;29.19;94813.97;5067410;28;20040;-67
2022/08/06 09:57:24;;;;;;;5.95;3.80;;;;;;;34.41;28.67;94792.34;5069530;28;20546;-68
2022/08/06 10:00:05;;;;;;;4.32;3.47;;;;;;;34.58;28.09;94804.31;5068355;28;20060;-67
2022/08/06 10:02:41;;;;;;;7.22;2.80;;;;;;;34.58;26.02;94806.25;5074291;28;20135;-67
2022/08/06 10:05:17;;;;;;;5.07;2.80;;;;;;;34.59;25.58;94802.38;5060223;28;20041;-67
2022/08/06 10:08:01;;;;;;;5.03;2.47;;;;;;;34.90;24.62;94794.66;5063212;28;20686;-66
2022/08/06 10:10:38;;;;;;;;;;;;;;;34.51;24.70;94795.44;5069072;28;20044;-65
2022/08/06 10:13:26;;;;;;;2.60;2.40;;;;;;;33.95;25.43;94787.63;5067342;28;19924;-64
2022/08/06 10:16:19;;;;;;;3.05;2.75;;;;;;;33.59;25.21;94787.50;5058400;28;20052;-67
2022/08/06 10:18:49;;;;;;;4.32;2.83;;;;;;;33.93;25.13;94783.78;5066449;28;20044;-68
2022/08/06 10:21:33;;;;;;;8.80;3.00;;;;;;;34.61;25.56;94779.22;5070689;28;20051;-68
2022/08/06 10:24:15;;;;;;;5.95;2.92;;;;;;;35.17;24.07;94781.47;5062483;28;20048;-68
2022/08/06 10:27:07;;;;;;;4.45;2.60;;;;;;;35.49;23.47;94776.00;5069501;28;20044;-68
2022/08/06 10:29:55;;;;;;;2.60;2.40;;;;;;;34.67;24.12;94768.78;5065070;28;20048;-68
2022/08/06 10:33:14;;;;;;;6.78;2.80;;;;;;;33.84;25.20;94776.78;5069331;28;21299;-68
2022/08/06 10:35:54;;;;;;;4.07;2.88;;;;;;;33.71;25.07;94778.31;5024291;28;20044;-68
2022/08/06 10:38:25;;;;;;;6.03;2.85;;;;;;;33.69;25.70;94776.00;5066013;28;20139;-68
2022/08/06 10:41:06;;;;;;;7.00;3.10;;;;;;;33.81;25.57;94776.78;5074892;28;20055;-67
2022/08/06 10:43:55;;;;;;;6.60;2.38;;;;;;;33.45;23.97;94777.41;5067774;28;20046;-68
2022/08/06 10:46:23;;;;;;;3.38;2.25;;;;;;;33.26;24.10;94791.97;5073194;28;20049;-67
2022/08/06 10:48:53;;;;;;;8.93;2.85;;;;;;;33.24;25.89;94775.41;5062735;28;20054;-67
2022/08/06 10:51:41;;;;;;;3.40;2.80;;;;;;;33.25;26.48;94776.94;5067817;28;20032;-67
2022/08/06 10:54:24;;;;;;;3.88;2.55;;;;;;;33.14;26.35;94773.41;5063926;28;20044;-67
2022/08/06 10:56:54;;;;;;;3.55;3.17;;;;;;;32.95;26.52;94772.53;5060932;28;20054;-67
2022/08/06 10:59:21;;;;;;;3.28;2.97;;;;;;;32.86;26.87;94774.78;5062262;28;20052;-68
2022/08/06 11:02:21;;;;;;;8.90;3.13;;;;;;;32.77;26.85;94777.00;5061279;28;20275;-68
2022/08/06 11:04:51;;;;;;;3.50;3.20;;;;;;;32.48;27.98;94760.59;5063585;28;20125;-68
2022/08/06 11:07:40;;;;;;;3.58;3.00;;;;;;;32.29;27.65;94764.31;5059266;28;20044;-68
2022/08/06 11:10:45;;;;;;;3.78;3.33;;;;;;;32.23;27.91;94760.38;5061043;28;20142;-68
2022/08/06 11:13:27;;;;;;;4.30;3.55;;;;;;;32.25;28.28;94763.50;5062938;28;20048;-68
2022/08/06 11:16:27;;;;;;;5.53;3.40;;;;;;;32.40;27.21;94759.00;5057610;28;20044;-68
2022/08/06 11:18:59;;;;;;;5.05;3.63;;;;;;;32.93;26.11;94766.72;5066705;28;20434;-67
2022/08/06 11:21:45;;;;;;;6.63;3.65;;;;;;;33.60;26.67;94762.06;5062335;28;20124;-67
2022/08/06 11:24:29;;;;;;;5.93;3.63;;;;;;;34.22;26.27;94752.19;5067117;28;20052;-67
2022/08/06 11:27:03;;;;;;;7.82;3.70;;;;;;;34.51;25.20;94757.59;5065811;28;21430;-67
2022/08/06 11:30:12;;;;;;;10.35;3.72;;;;;;;34.81;25.74;94759.91;5066311;28;20041;-67
2022/08/06 11:32:47;;;;;;;3.90;3.50;;;;;;;35.05;24.99;94769.13;5001743;28;20053;-67
2022/08/06 11:35:45;;;;;;;5.80;3.67;;;;;;;35.35;24.18;94770.63;5059499;28;20139;-67
2022/08/06 11:38:52;;;;;;;4.57;3.33;;;;;;;35.59;24.18;94769.72;5065297;28;20129;-68
2022/08/06 11:41:30;;;;;;;4.85;3.50;;;;;;;35.87;24.49;94768.09;5070492;28;20133;-67
2022/08/06 11:44:19;;;;;;;4.75;4.25;;;;;;;35.95;23.52;94769.56;5063116;28;20044;-68
2022/08/06 11:47:10;;;;;;;13.10;4.10;;;;;;;36.43;23.49;94761.91;5068221;28;20119;-67
2022/08/06 11:49:47;;;;;;;9.02;3.65;;;;;;;36.74;22.40;94769.03;5059645;28;20052;-68
2022/08/06 11:52:34;;;;;;;5.07;3.92;;;;;;;37.19;22.84;94772.91;5061711;28;20511;-67
2022/08/06 11:55:08;;;;;;;4.38;3.78;;;;;;;37.42;21.79;94777.66;5065252;28;20040;-67
2022/08/06 11:57:48;;;;;;;4.88;4.13;;;;;;;37.04;23.01;94764.88;5065498;28;20061;-68
2022/08/06 12:00:19;;;;;;;3.50;3.20;;;;;;;36.03;23.06;94758.69;5064485;28;20060;-68
2022/08/06 12:02:54;;;;;;;6.22;3.35;;;;;;;35.35;24.68;94759.81;5069090;28;20131;-68
2022/08/06 12:05:22;;;;;;;3.60;3.30;;;;;;;35.33;25.09;94756.69;5063423;28;20048;-68
2022/08/06 12:08:14;;;;;;;5.10;3.40;;;;;;;35.87;24.02;94756.47;5061525;28;20056;-67
2022/08/06 12:11:30;;;;;;;8.32;3.53;;;;;;;35.91;24.49;94760.69;5069654;28;20422;-67
2022/08/06 12:14:03;;;;;;;3.80;3.33;;;;;;;36.26;23.58;94767.06;5064216;28;20044;-68
2022/08/06 12:16:50;;;;;;;4.10;3.70;;;;;;;36.38;23.25;94767.78;5058547;28;20049;-68
2022/08/06 12:19:21;;;;;;;3.80;3.50;;;;;;;36.57;22.87;94761.78;5066658;28;20051;-67
2022/08/06 12:21:53;;;;;;;3.97;3.40;;;;;;;36.99;22.06;94762.59;5062453;28;20040;-67
2022/08/06 12:24:26;;;;;;;3.15;2.75;;;;;;;37.55;22.14;94769.75;5062146;28;20793;-66
2022/08/06 12:27:14;;;;;;;4.88;3.42;;;;;;;37.50;21.42;94758.16;5064703;28;20399;-67
2022/08/06 12:29:42;;;;;;;7.07;3.47;;;;;;;37.55;21.82;94765.09;5065856;28;20045;-67
2022/08/06 12:32:26;;;;;;;3.40;2.88;;;;;;;37.22;22.10;94763.91;5060659;28;20125;-67